sensor_id;sensor_type;location;lat;lon;timestamp;pressure;altitude;pressure_sealevel;temperature;humidity
64862;BME280;62652;42.274;-71.436;2023-02-19T00:00:01;101760.0;;;1.7777777777777795;41.3
64862;BME280;62652;42.274;-71.436;2023-02-19T00:01:06;101760.0;;;1.7777777777777795;41.0
64862;BME280;62652;42.274;-71.436;2023-02-19T00:02:01;101760.0;;;1.7777777777777795;41.2
64862;BME280;62652;42.274;-71.436;2023-02-19T00:03:01;101770.0;;;1.722222222222223;41.8
64862;BME280;62652;42.274;-71.436;2023-02-19T00:04:02;101770.0;;;1.722222222222223;41.4
64862;BME280;62652;42.274;-71.436;2023-02-19T00:05:01;101770.0;;;1.7777777777777795;41.6
64862;BME280;62652;42.274;-71.436;2023-02-19T00:06:01;101770.0;;;1.722222222222223;41.5
64862;BME280;62652;42.274;-71.436;2023-02-19T00:07:01;101770.0;;;1.6111111111111103;41.8
64862;BME280;62652;42.274;-71.436;2023-02-19T00:08:01;101770.0;;;1.6111111111111103;41.6
64862;BME280;62652;42.274;-71.436;2023-02-19T00:09:01;101770.0;;;1.6111111111111103;42.2
64862;BME280;62652;42.274;-71.436;2023-02-19T00:10:01;101780.0;;;1.5000000000000016;42.5
64862;BME280;62652;42.274;-71.436;2023-02-19T00:11:02;101780.0;;;1.5000000000000016;42.0
64862;BME280;62652;42.274;-71.436;2023-02-19T00:12:01;101780.0;;;1.5000000000000016;42.0
64862;BME280;62652;42.274;-71.436;2023-02-19T00:13:01;101790.0;;;1.5000000000000016;42.1
64862;BME280;62652;42.274;-71.436;2023-02-19T00:14:02;101790.0;;;1.5000000000000016;42.7
64862;BME280;62652;42.274;-71.436;2023-02-19T00:15:01;101780.0;;;1.5000000000000016;42.4
64862;BME280;62652;42.274;-71.436;2023-02-19T00:16:05;101780.0;;;1.6111111111111103;42.5
64862;BME280;62652;42.274;-71.436;2023-02-19T00:17:01;101790.0;;;1.5000000000000016;42.4
64862;BME280;62652;42.274;-71.436;2023-02-19T00:18:01;101790.0;;;1.5000000000000016;43.0
64862;BME280;62652;42.274;-71.436;2023-02-19T00:19:03;101790.0;;;1.6111111111111103;42.7
64862;BME280;62652;42.274;-71.436;2023-02-19T00:20:01;101790.0;;;1.5000000000000016;43.0
64862;BME280;62652;42.274;-71.436;2023-02-19T00:21:01;101800.0;;;1.6111111111111103;42.7
64862;BME280;62652;42.274;-71.436;2023-02-19T00:22:01;101800.0;;;1.5000000000000016;42.7
64862;BME280;62652;42.274;-71.436;2023-02-19T00:23:01;101800.0;;;1.5000000000000016;43.5
64862;BME280;62652;42.274;-71.436;2023-02-19T00:24:02;101800.0;;;1.5000000000000016;43.0
64862;BME280;62652;42.274;-71.436;2023-02-19T00:25:01;101810.0;;;1.3888888888888888;43.3
64862;BME280;62652;42.274;-71.436;2023-02-19T00:26:02;101810.0;;;1.3888888888888888;43.7
64862;BME280;62652;42.274;-71.436;2023-02-19T00:27:01;101810.0;;;1.3888888888888888;44.4
64862;BME280;62652;42.274;-71.436;2023-02-19T00:28:01;101810.0;;;1.3888888888888888;44.7
64862;BME280;62652;42.274;-71.436;2023-02-19T00:29:01;101810.0;;;1.3888888888888888;44.2
64862;BME280;62652;42.274;-71.436;2023-02-19T00:30:01;101810.0;;;1.2777777777777761;44.1
64862;BME280;62652;42.274;-71.436;2023-02-19T00:31:04;101820.0;;;1.3888888888888888;44.2
64862;BME280;62652;42.274;-71.436;2023-02-19T00:32:01;101820.0;;;1.3888888888888888;43.9
64862;BME280;62652;42.274;-71.436;2023-02-19T00:33:01;101820.0;;;1.3888888888888888;43.8
64862;BME280;62652;42.274;-71.436;2023-02-19T00:34:02;101820.0;;;1.2777777777777761;44.0
64862;BME280;62652;42.274;-71.436;2023-02-19T00:35:01;101830.0;;;1.2777777777777761;44.1
64862;BME280;62652;42.274;-71.436;2023-02-19T00:36:02;101830.0;;;1.2222222222222239;44.6
64862;BME280;62652;42.274;-71.436;2023-02-19T00:37:01;101830.0;;;1.2222222222222239;44.7
64862;BME280;62652;42.274;-71.436;2023-02-19T00:38:02;101830.0;;;1.1111111111111112;45.1
64862;BME280;62652;42.274;-71.436;2023-02-19T00:39:01;101830.0;;;1.2222222222222239;45.4
64862;BME280;62652;42.274;-71.436;2023-02-19T00:40:01;101830.0;;;1.2222222222222239;44.9
64862;BME280;62652;42.274;-71.436;2023-02-19T00:41:02;101830.0;;;1.2222222222222239;45.3
64862;BME280;62652;42.274;-71.436;2023-02-19T00:42:01;101830.0;;;1.1111111111111112;45.5
64862;BME280;62652;42.274;-71.436;2023-02-19T00:43:01;101830.0;;;1.1111111111111112;45.4
64862;BME280;62652;42.274;-71.436;2023-02-19T00:44:03;101830.0;;;1.1111111111111112;45.6
64862;BME280;62652;42.274;-71.436;2023-02-19T00:45:01;101840.0;;;1.1111111111111112;45.9
64862;BME280;62652;42.274;-71.436;2023-02-19T00:46:01;101840.0;;;0.9999999999999984;46.0
64862;BME280;62652;42.274;-71.436;2023-02-19T00:47:01;101840.0;;;0.8888888888888897;46.4
64862;BME280;62652;42.274;-71.436;2023-02-19T00:48:01;101840.0;;;0.8888888888888897;46.3
64862;BME280;62652;42.274;-71.436;2023-02-19T00:49:02;101840.0;;;0.8888888888888897;46.1
64862;BME280;62652;42.274;-71.436;2023-02-19T00:50:01;101840.0;;;0.8888888888888897;46.5
64862;BME280;62652;42.274;-71.436;2023-02-19T00:51:01;101850.0;;;0.8888888888888897;46.4
64862;BME280;62652;42.274;-71.436;2023-02-19T00:52:01;101850.0;;;0.8888888888888897;46.7
64862;BME280;62652;42.274;-71.436;2023-02-19T00:53:01;101850.0;;;0.8888888888888897;47.3
64862;BME280;62652;42.274;-71.436;2023-02-19T00:54:02;101850.0;;;0.8888888888888897;47.2
64862;BME280;62652;42.274;-71.436;2023-02-19T00:55:01;101850.0;;;0.8888888888888897;47.3
64862;BME280;62652;42.274;-71.436;2023-02-19T00:56:01;101850.0;;;0.777777777777777;47.4
64862;BME280;62652;42.274;-71.436;2023-02-19T00:57:01;101850.0;;;0.777777777777777;47.8
64862;BME280;62652;42.274;-71.436;2023-02-19T00:58:01;101850.0;;;0.777777777777777;48.3
64862;BME280;62652;42.274;-71.436;2023-02-19T00:59:01;101850.0;;;0.777777777777777;48.1
64862;BME280;62652;42.274;-71.436;2023-02-19T01:00:01;101850.0;;;0.777777777777777;48.0
64862;BME280;62652;42.274;-71.436;2023-02-19T01:01:01;101850.0;;;0.777777777777777;47.9
64862;BME280;62652;42.274;-71.436;2023-02-19T01:02:01;101850.0;;;0.777777777777777;47.7
64862;BME280;62652;42.274;-71.436;2023-02-19T01:03:01;101850.0;;;0.7222222222222207;47.7
64862;BME280;62652;42.274;-71.436;2023-02-19T01:04:01;101850.0;;;0.7222222222222207;47.9
64862;BME280;62652;42.274;-71.436;2023-02-19T01:05:01;101860.0;;;0.7222222222222207;47.8
64862;BME280;62652;42.274;-71.436;2023-02-19T01:06:01;101860.0;;;0.777777777777777;48.1
64862;BME280;62652;42.274;-71.436;2023-02-19T01:07:01;101870.0;;;0.7222222222222207;47.9
64862;BME280;62652;42.274;-71.436;2023-02-19T01:08:01;101870.0;;;0.777777777777777;48.1
64862;BME280;62652;42.274;-71.436;2023-02-19T01:09:02;101880.0;;;0.7222222222222207;48.0
64862;BME280;62652;42.274;-71.436;2023-02-19T01:10:01;101880.0;;;0.6111111111111119;48.3
64862;BME280;62652;42.274;-71.436;2023-02-19T01:11:02;101880.0;;;0.7222222222222207;48.0
64862;BME280;62652;42.274;-71.436;2023-02-19T01:12:01;101880.0;;;0.6111111111111119;48.1
64862;BME280;62652;42.274;-71.436;2023-02-19T01:13:01;101890.0;;;0.6111111111111119;48.2
64862;BME280;62652;42.274;-71.436;2023-02-19T01:14:01;101880.0;;;0.6111111111111119;48.4
64862;BME280;62652;42.274;-71.436;2023-02-19T01:15:01;101880.0;;;0.6111111111111119;48.0
64862;BME280;62652;42.274;-71.436;2023-02-19T01:16:02;101890.0;;;0.6111111111111119;48.0
64862;BME280;62652;42.274;-71.436;2023-02-19T01:17:01;101890.0;;;0.6111111111111119;47.9
64862;BME280;62652;42.274;-71.436;2023-02-19T01:18:01;101890.0;;;0.6111111111111119;48.0
64862;BME280;62652;42.274;-71.436;2023-02-19T01:19:01;101900.0;;;0.6111111111111119;48.2
64862;BME280;62652;42.274;-71.436;2023-02-19T01:20:01;101890.0;;;0.6111111111111119;47.9
64862;BME280;62652;42.274;-71.436;2023-02-19T01:21:04;101890.0;;;0.6111111111111119;47.9
64862;BME280;62652;42.274;-71.436;2023-02-19T01:22:01;101900.0;;;0.6111111111111119;48.0
64862;BME280;62652;42.274;-71.436;2023-02-19T01:23:01;101900.0;;;0.6111111111111119;48.1
64862;BME280;62652;42.274;-71.436;2023-02-19T01:24:01;101900.0;;;0.6111111111111119;48.2
64862;BME280;62652;42.274;-71.436;2023-02-19T01:25:01;101900.0;;;0.6111111111111119;48.0
64862;BME280;62652;42.274;-71.436;2023-02-19T01:26:02;101900.0;;;0.6111111111111119;48.2
64862;BME280;62652;42.274;-71.436;2023-02-19T01:27:01;101890.0;;;0.6111111111111119;47.9
64862;BME280;62652;42.274;-71.436;2023-02-19T01:28:01;101900.0;;;0.6111111111111119;48.0
64862;BME280;62652;42.274;-71.436;2023-02-19T01:29:01;101900.0;;;0.4999999999999992;48.0
64862;BME280;62652;42.274;-71.436;2023-02-19T01:30:01;101900.0;;;0.4999999999999992;48.1
64862;BME280;62652;42.274;-71.436;2023-02-19T01:31:02;101910.0;;;0.6111111111111119;47.8
64862;BME280;62652;42.274;-71.436;2023-02-19T01:32:01;101900.0;;;0.7222222222222207;48.0
64862;BME280;62652;42.274;-71.436;2023-02-19T01:33:01;101910.0;;;0.7222222222222207;47.8
64862;BME280;62652;42.274;-71.436;2023-02-19T01:34:02;101910.0;;;0.6111111111111119;47.5
64862;BME280;62652;42.274;-71.436;2023-02-19T01:35:01;101920.0;;;0.6111111111111119;48.1
64862;BME280;62652;42.274;-71.436;2023-02-19T01:36:02;101920.0;;;0.7222222222222207;47.6
64862;BME280;62652;42.274;-71.436;2023-02-19T01:37:01;101920.0;;;0.6111111111111119;47.8
64862;BME280;62652;42.274;-71.436;2023-02-19T01:38:01;101930.0;;;0.6111111111111119;47.8
64862;BME280;62652;42.274;-71.436;2023-02-19T01:39:03;101920.0;;;0.6111111111111119;48.0
64862;BME280;62652;42.274;-71.436;2023-02-19T01:40:01;101920.0;;;0.6111111111111119;47.8
64862;BME280;62652;42.274;-71.436;2023-02-19T01:41:03;101930.0;;;0.6111111111111119;47.8
64862;BME280;62652;42.274;-71.436;2023-02-19T01:42:01;101920.0;;;0.6111111111111119;47.9
64862;BME280;62652;42.274;-71.436;2023-02-19T01:43:01;101920.0;;;0.4999999999999992;48.0
64862;BME280;62652;42.274;-71.436;2023-02-19T01:44:03;101930.0;;;0.6111111111111119;48.4
64862;BME280;62652;42.274;-71.436;2023-02-19T01:45:20;101930.0;;;0.6111111111111119;47.9
64862;BME280;62652;42.274;-71.436;2023-02-19T01:46:01;101930.0;;;0.6111111111111119;47.7
64862;BME280;62652;42.274;-71.436;2023-02-19T01:47:01;101930.0;;;0.6111111111111119;47.5
64862;BME280;62652;42.274;-71.436;2023-02-19T01:48:05;101930.0;;;0.6111111111111119;47.6
64862;BME280;62652;42.274;-71.436;2023-02-19T01:49:04;101920.0;;;0.7222222222222207;47.2
64862;BME280;62652;42.274;-71.436;2023-02-19T01:50:01;101920.0;;;0.4999999999999992;47.6
64862;BME280;62652;42.274;-71.436;2023-02-19T01:51:05;101920.0;;;0.4999999999999992;47.6
64862;BME280;62652;42.274;-71.436;2023-02-19T01:52:09;101920.0;;;0.4999999999999992;47.7
64862;BME280;62652;42.274;-71.436;2023-02-19T01:53:03;101920.0;;;0.6111111111111119;47.7
64862;BME280;62652;42.274;-71.436;2023-02-19T01:54:03;101930.0;;;0.7222222222222207;47.6
64862;BME280;62652;42.274;-71.436;2023-02-19T01:55:02;101930.0;;;0.6111111111111119;47.7
64862;BME280;62652;42.274;-71.436;2023-02-19T01:56:01;101930.0;;;0.6111111111111119;47.3
64862;BME280;62652;42.274;-71.436;2023-02-19T01:57:03;101930.0;;;0.6111111111111119;47.4
64862;BME280;62652;42.274;-71.436;2023-02-19T01:58:02;101930.0;;;0.6111111111111119;47.2
64862;BME280;62652;42.274;-71.436;2023-02-19T01:59:01;101930.0;;;0.6111111111111119;47.2
64862;BME280;62652;42.274;-71.436;2023-02-19T02:00:04;101930.0;;;0.6111111111111119;47.3
64862;BME280;62652;42.274;-71.436;2023-02-19T02:01:03;101930.0;;;0.6111111111111119;47.4
64862;BME280;62652;42.274;-71.436;2023-02-19T02:02:01;101940.0;;;0.6111111111111119;47.4
64862;BME280;62652;42.274;-71.436;2023-02-19T02:03:01;101940.0;;;0.6111111111111119;47.2
64862;BME280;62652;42.274;-71.436;2023-02-19T02:04:01;101940.0;;;0.6111111111111119;47.5
64862;BME280;62652;42.274;-71.436;2023-02-19T02:05:02;101940.0;;;0.7222222222222207;46.8
64862;BME280;62652;42.274;-71.436;2023-02-19T02:06:03;101940.0;;;0.7222222222222207;46.6
64862;BME280;62652;42.274;-71.436;2023-02-19T02:07:03;101940.0;;;0.7222222222222207;46.7
64862;BME280;62652;42.274;-71.436;2023-02-19T02:08:02;101940.0;;;0.7222222222222207;46.4
64862;BME280;62652;42.274;-71.436;2023-02-19T02:09:01;101940.0;;;0.7222222222222207;46.6
64862;BME280;62652;42.274;-71.436;2023-02-19T02:10:02;101940.0;;;0.7222222222222207;46.6
64862;BME280;62652;42.274;-71.436;2023-02-19T02:11:01;101950.0;;;0.7222222222222207;46.3
64862;BME280;62652;42.274;-71.436;2023-02-19T02:12:01;101950.0;;;0.7222222222222207;46.3
64862;BME280;62652;42.274;-71.436;2023-02-19T02:13:01;101950.0;;;0.6111111111111119;46.4
64862;BME280;62652;42.274;-71.436;2023-02-19T02:14:02;101950.0;;;0.7222222222222207;46.7
64862;BME280;62652;42.274;-71.436;2023-02-19T02:15:02;101950.0;;;0.7222222222222207;46.6
64862;BME280;62652;42.274;-71.436;2023-02-19T02:16:13;101940.0;;;0.6111111111111119;46.7
64862;BME280;62652;42.274;-71.436;2023-02-19T02:17:09;101940.0;;;0.6111111111111119;46.8
64862;BME280;62652;42.274;-71.436;2023-02-19T02:18:04;101940.0;;;0.6111111111111119;46.9
64862;BME280;62652;42.274;-71.436;2023-02-19T02:19:08;101940.0;;;0.38888888888889045;47.1
64862;BME280;62652;42.274;-71.436;2023-02-19T02:20:11;101940.0;;;0.4999999999999992;47.2
64862;BME280;62652;42.274;-71.436;2023-02-19T02:21:07;101950.0;;;0.4999999999999992;47.3
64862;BME280;62652;42.274;-71.436;2023-02-19T02:22:06;101950.0;;;0.4999999999999992;47.3
64862;BME280;62652;42.274;-71.436;2023-02-19T02:23:08;101940.0;;;0.38888888888889045;47.7
64862;BME280;62652;42.274;-71.436;2023-02-19T02:24:13;101940.0;;;0.38888888888889045;47.7
64862;BME280;62652;42.274;-71.436;2023-02-19T02:25:16;101940.0;;;0.4999999999999992;47.9
64862;BME280;62652;42.274;-71.436;2023-02-19T02:26:08;101940.0;;;0.38888888888889045;47.8
64862;BME280;62652;42.274;-71.436;2023-02-19T02:27:13;101940.0;;;0.38888888888889045;47.8
64862;BME280;62652;42.274;-71.436;2023-02-19T02:28:19;101940.0;;;0.38888888888889045;48.2
64862;BME280;62652;42.274;-71.436;2023-02-19T02:29:20;101940.0;;;0.4999999999999992;48.1
64862;BME280;62652;42.274;-71.436;2023-02-19T02:30:15;101940.0;;;0.38888888888889045;48.0
64862;BME280;62652;42.274;-71.436;2023-02-19T02:31:03;101940.0;;;0.4999999999999992;48.3
64862;BME280;62652;42.274;-71.436;2023-02-19T02:32:03;101940.0;;;0.38888888888889045;48.3
64862;BME280;62652;42.274;-71.436;2023-02-19T02:33:05;101940.0;;;0.38888888888889045;48.5
64862;BME280;62652;42.274;-71.436;2023-02-19T02:34:06;101940.0;;;0.38888888888889045;48.8
64862;BME280;62652;42.274;-71.436;2023-02-19T02:35:06;101940.0;;;0.38888888888889045;48.6
64862;BME280;62652;42.274;-71.436;2023-02-19T02:36:04;101940.0;;;0.4999999999999992;48.5
64862;BME280;62652;42.274;-71.436;2023-02-19T02:37:02;101940.0;;;0.38888888888889045;48.7
64862;BME280;62652;42.274;-71.436;2023-02-19T02:38:06;101940.0;;;0.38888888888889045;48.7
64862;BME280;62652;42.274;-71.436;2023-02-19T02:39:02;101940.0;;;0.38888888888889045;48.9
64862;BME280;62652;42.274;-71.436;2023-02-19T02:40:02;101940.0;;;0.38888888888889045;48.9
64862;BME280;62652;42.274;-71.436;2023-02-19T02:41:01;101940.0;;;0.2777777777777778;49.5
64862;BME280;62652;42.274;-71.436;2023-02-19T02:42:01;101940.0;;;0.38888888888889045;49.5
64862;BME280;62652;42.274;-71.436;2023-02-19T02:43:01;101940.0;;;0.2777777777777778;49.6
64862;BME280;62652;42.274;-71.436;2023-02-19T02:44:01;101950.0;;;0.2777777777777778;50.0
64862;BME280;62652;42.274;-71.436;2023-02-19T02:45:21;101940.0;;;0.38888888888889045;50.2
64862;BME280;62652;42.274;-71.436;2023-02-19T02:46:01;101950.0;;;0.2777777777777778;50.2
64862;BME280;62652;42.274;-71.436;2023-02-19T02:47:03;101950.0;;;0.22222222222222143;50.4
64862;BME280;62652;42.274;-71.436;2023-02-19T02:48:07;101950.0;;;0.2777777777777778;50.4
64862;BME280;62652;42.274;-71.436;2023-02-19T02:49:05;101950.0;;;0.2777777777777778;50.7
64862;BME280;62652;42.274;-71.436;2023-02-19T02:50:01;101950.0;;;0.2777777777777778;50.9
64862;BME280;62652;42.274;-71.436;2023-02-19T02:51:07;101960.0;;;0.2777777777777778;51.2
64862;BME280;62652;42.274;-71.436;2023-02-19T02:52:01;101960.0;;;0.22222222222222143;51.2
64862;BME280;62652;42.274;-71.436;2023-02-19T02:53:04;101960.0;;;0.22222222222222143;51.4
64862;BME280;62652;42.274;-71.436;2023-02-19T02:54:05;101970.0;;;0.22222222222222143;51.4
64862;BME280;62652;42.274;-71.436;2023-02-19T02:55:01;101960.0;;;0.22222222222222143;51.5
64862;BME280;62652;42.274;-71.436;2023-02-19T02:56:01;101960.0;;;0.22222222222222143;51.8
64862;BME280;62652;42.274;-71.436;2023-02-19T02:57:01;101960.0;;;0.22222222222222143;51.9
64862;BME280;62652;42.274;-71.436;2023-02-19T02:58:01;101960.0;;;0.22222222222222143;51.8
64862;BME280;62652;42.274;-71.436;2023-02-19T02:59:03;101970.0;;;0.22222222222222143;51.7
64862;BME280;62652;42.274;-71.436;2023-02-19T03:00:01;101970.0;;;0.22222222222222143;52.0
64862;BME280;62652;42.274;-71.436;2023-02-19T03:01:05;101970.0;;;0.22222222222222143;51.9
64862;BME280;62652;42.274;-71.436;2023-02-19T03:02:04;101970.0;;;0.22222222222222143;52.5
64862;BME280;62652;42.274;-71.436;2023-02-19T03:03:01;101970.0;;;0.11111111111111269;52.5
64862;BME280;62652;42.274;-71.436;2023-02-19T03:04:04;101970.0;;;0.11111111111111269;52.7
64862;BME280;62652;42.274;-71.436;2023-02-19T03:05:03;101970.0;;;0.11111111111111269;52.9
64862;BME280;62652;42.274;-71.436;2023-02-19T03:06:03;101970.0;;;0.11111111111111269;53.1
64862;BME280;62652;42.274;-71.436;2023-02-19T03:07:04;101970.0;;;0.0;53.5
64862;BME280;62652;42.274;-71.436;2023-02-19T03:08:06;101980.0;;;0.0;53.7
64862;BME280;62652;42.274;-71.436;2023-02-19T03:09:08;101980.0;;;0.0;54.1
64862;BME280;62652;42.274;-71.436;2023-02-19T03:10:02;101980.0;;;0.0;54.1
64862;BME280;62652;42.274;-71.436;2023-02-19T03:11:04;101980.0;;;0.0;54.1
64862;BME280;62652;42.274;-71.436;2023-02-19T03:12:02;101980.0;;;0.0;54.5
64862;BME280;62652;42.274;-71.436;2023-02-19T03:13:02;101980.0;;;0.0;54.3
64862;BME280;62652;42.274;-71.436;2023-02-19T03:14:05;101990.0;;;0.0;54.3
64862;BME280;62652;42.274;-71.436;2023-02-19T03:15:05;101980.0;;;0.0;54.4
64862;BME280;62652;42.274;-71.436;2023-02-19T03:16:07;101980.0;;;0.0;54.7
64862;BME280;62652;42.274;-71.436;2023-02-19T03:17:06;101980.0;;;-0.11111111111111072;55.2
64862;BME280;62652;42.274;-71.436;2023-02-19T03:18:02;101980.0;;;0.0;55.1
64862;BME280;62652;42.274;-71.436;2023-02-19T03:19:04;101980.0;;;-0.11111111111111072;55.5
64862;BME280;62652;42.274;-71.436;2023-02-19T03:20:07;101980.0;;;-0.11111111111111072;55.9
64862;BME280;62652;42.274;-71.436;2023-02-19T03:21:01;101980.0;;;-0.11111111111111072;55.6
64862;BME280;62652;42.274;-71.436;2023-02-19T03:22:05;101980.0;;;0.0;55.6
64862;BME280;62652;42.274;-71.436;2023-02-19T03:23:01;101980.0;;;-0.11111111111111072;55.8
64862;BME280;62652;42.274;-71.436;2023-02-19T03:24:02;101980.0;;;0.0;55.9
64862;BME280;62652;42.274;-71.436;2023-02-19T03:25:04;101980.0;;;0.0;55.9
64862;BME280;62652;42.274;-71.436;2023-02-19T03:26:01;101970.0;;;0.0;55.8
64862;BME280;62652;42.274;-71.436;2023-02-19T03:27:03;101970.0;;;0.0;56.0
64862;BME280;62652;42.274;-71.436;2023-02-19T03:28:04;101970.0;;;-0.11111111111111072;56.3
64862;BME280;62652;42.274;-71.436;2023-02-19T03:29:02;101970.0;;;-0.11111111111111072;56.7
64862;BME280;62652;42.274;-71.436;2023-02-19T03:30:07;101970.0;;;-0.11111111111111072;56.8
64862;BME280;62652;42.274;-71.436;2023-02-19T03:31:01;101970.0;;;-0.22222222222222143;57.1
64862;BME280;62652;42.274;-71.436;2023-02-19T03:32:05;101970.0;;;-0.22222222222222143;57.4
64862;BME280;62652;42.274;-71.436;2023-02-19T03:33:03;101960.0;;;-0.11111111111111072;57.4
64862;BME280;62652;42.274;-71.436;2023-02-19T03:34:04;101960.0;;;-0.11111111111111072;57.6
64862;BME280;62652;42.274;-71.436;2023-02-19T03:35:05;101960.0;;;-0.11111111111111072;57.7
64862;BME280;62652;42.274;-71.436;2023-02-19T03:36:04;101970.0;;;-0.22222222222222143;58.1
64862;BME280;62652;42.274;-71.436;2023-02-19T03:37:07;101970.0;;;-0.22222222222222143;58.1
64862;BME280;62652;42.274;-71.436;2023-02-19T03:38:05;101960.0;;;-0.22222222222222143;58.4
64862;BME280;62652;42.274;-71.436;2023-02-19T03:39:03;101960.0;;;-0.22222222222222143;58.3
64862;BME280;62652;42.274;-71.436;2023-02-19T03:40:01;101950.0;;;-0.22222222222222143;58.8
64862;BME280;62652;42.274;-71.436;2023-02-19T03:41:06;101960.0;;;-0.11111111111111072;58.7
64862;BME280;62652;42.274;-71.436;2023-02-19T03:42:04;101960.0;;;-0.22222222222222143;58.7
64862;BME280;62652;42.274;-71.436;2023-02-19T03:43:06;101960.0;;;-0.22222222222222143;59.3
64862;BME280;62652;42.274;-71.436;2023-02-19T03:44:08;101960.0;;;-0.22222222222222143;59.2
64862;BME280;62652;42.274;-71.436;2023-02-19T03:45:14;101950.0;;;-0.22222222222222143;59.2
64862;BME280;62652;42.274;-71.436;2023-02-19T03:46:06;101950.0;;;-0.22222222222222143;59.4
64862;BME280;62652;42.274;-71.436;2023-02-19T03:47:04;101950.0;;;-0.11111111111111072;59.4
64862;BME280;62652;42.274;-71.436;2023-02-19T03:48:08;101950.0;;;-0.22222222222222143;59.6
64862;BME280;62652;42.274;-71.436;2023-02-19T03:49:05;101950.0;;;-0.11111111111111072;59.3
64862;BME280;62652;42.274;-71.436;2023-02-19T03:50:07;101950.0;;;-0.11111111111111072;59.5
64862;BME280;62652;42.274;-71.436;2023-02-19T03:51:07;101950.0;;;-0.22222222222222143;59.6
64862;BME280;62652;42.274;-71.436;2023-02-19T03:52:06;101950.0;;;-0.22222222222222143;60.1
64862;BME280;62652;42.274;-71.436;2023-02-19T03:53:04;101950.0;;;-0.11111111111111072;59.6
64862;BME280;62652;42.274;-71.436;2023-02-19T03:54:10;101940.0;;;-0.11111111111111072;59.6
64862;BME280;62652;42.274;-71.436;2023-02-19T03:55:05;101940.0;;;-0.11111111111111072;59.4
64862;BME280;62652;42.274;-71.436;2023-02-19T03:56:07;101950.0;;;-0.11111111111111072;59.8
64862;BME280;62652;42.274;-71.436;2023-02-19T03:57:04;101950.0;;;-0.22222222222222143;60.0
64862;BME280;62652;42.274;-71.436;2023-02-19T03:58:06;101950.0;;;-0.22222222222222143;60.3
64862;BME280;62652;42.274;-71.436;2023-02-19T03:59:07;101950.0;;;-0.22222222222222143;60.4
64862;BME280;62652;42.274;-71.436;2023-02-19T04:00:07;101950.0;;;-0.22222222222222143;60.3
64862;BME280;62652;42.274;-71.436;2023-02-19T04:01:04;101950.0;;;-0.11111111111111072;60.5
64862;BME280;62652;42.274;-71.436;2023-02-19T04:02:05;101950.0;;;-0.11111111111111072;60.7
64862;BME280;62652;42.274;-71.436;2023-02-19T04:03:06;101950.0;;;-0.22222222222222143;60.8
64862;BME280;62652;42.274;-71.436;2023-02-19T04:04:04;101950.0;;;-0.2777777777777778;61.3
64862;BME280;62652;42.274;-71.436;2023-02-19T04:05:05;101950.0;;;-0.22222222222222143;61.2
64862;BME280;62652;42.274;-71.436;2023-02-19T04:06:03;101950.0;;;-0.11111111111111072;60.6
64862;BME280;62652;42.274;-71.436;2023-02-19T04:07:01;101950.0;;;-0.22222222222222143;60.8
64862;BME280;62652;42.274;-71.436;2023-02-19T04:08:05;101950.0;;;-0.22222222222222143;61.3
64862;BME280;62652;42.274;-71.436;2023-02-19T04:09:05;101960.0;;;-0.2777777777777778;61.4
64862;BME280;62652;42.274;-71.436;2023-02-19T04:10:02;101960.0;;;-0.2777777777777778;61.7
64862;BME280;62652;42.274;-71.436;2023-02-19T04:11:02;101960.0;;;-0.22222222222222143;61.5
64862;BME280;62652;42.274;-71.436;2023-02-19T04:12:01;101960.0;;;-0.22222222222222143;61.7
64862;BME280;62652;42.274;-71.436;2023-02-19T04:13:05;101960.0;;;-0.2777777777777778;61.8
64862;BME280;62652;42.274;-71.436;2023-02-19T04:14:05;101950.0;;;-0.2777777777777778;62.2
64862;BME280;62652;42.274;-71.436;2023-02-19T04:15:03;101950.0;;;-0.2777777777777778;62.4
64862;BME280;62652;42.274;-71.436;2023-02-19T04:16:05;101950.0;;;-0.2777777777777778;62.3
64862;BME280;62652;42.274;-71.436;2023-02-19T04:17:05;101950.0;;;-0.2777777777777778;62.6
64862;BME280;62652;42.274;-71.436;2023-02-19T04:18:05;101940.0;;;-0.2777777777777778;62.8
64862;BME280;62652;42.274;-71.436;2023-02-19T04:19:04;101950.0;;;-0.22222222222222143;62.7
64862;BME280;62652;42.274;-71.436;2023-02-19T04:20:04;101950.0;;;-0.3888888888888885;62.9
64862;BME280;62652;42.274;-71.436;2023-02-19T04:21:02;101950.0;;;-0.2777777777777778;63.4
64862;BME280;62652;42.274;-71.436;2023-02-19T04:22:03;101950.0;;;-0.2777777777777778;63.5
64862;BME280;62652;42.274;-71.436;2023-02-19T04:23:01;101950.0;;;-0.2777777777777778;63.3
64862;BME280;62652;42.274;-71.436;2023-02-19T04:24:03;101950.0;;;-0.2777777777777778;63.6
64862;BME280;62652;42.274;-71.436;2023-02-19T04:25:01;101950.0;;;-0.2777777777777778;63.5
64862;BME280;62652;42.274;-71.436;2023-02-19T04:26:02;101950.0;;;-0.2777777777777778;63.2
64862;BME280;62652;42.274;-71.436;2023-02-19T04:27:01;101950.0;;;-0.2777777777777778;63.5
64862;BME280;62652;42.274;-71.436;2023-02-19T04:28:01;101950.0;;;-0.2777777777777778;63.6